Pagrindinis puslapis
METAR-TAF:

METAR-TAF

Oro uostai :

Kuveitas, Kuveitas

platuma: 29-13N, ilguma: 047-59E, Aukštis: 55 m

Dabartinis oras

Ataskaita buvo paskelbta 13 minutes, ne 07:00 UTC
Vėjas 6 kt iš Šiaurės
Temperatūra 30°C
Drėgmė 22%
Slėgis 1014 hPa
Matomumas: 7000 m
Giedras dangus

METAR: OKBK 210700Z 35006KT 7000 SKC 30/06 Q1014 NOSIG

Laikas: 10:13 (07:13 UTC)

Prognozė

Ataskaita buvo paskelbta 2 valandos ir 28 minutes, ne 04:45 UTC
Prognozė galioja nuo 21 metu 06 UTC su 22 metu 12 UTC
Vėjas 12 kt iš Šiaurės/Šiaurės Vakarų
Matomumas: 6000 m
Laikinai
nuo 21 metu 12 UTC su 21 metu 22 UTC
Vėjas 3 kt nuo kintamojo kryptimis

TAF: OKBK 210445Z 2106/2212 34012KT 6000 NSC TEMPO 2112/2122 VRB03KT

Orai ataskaitas ir orų prognozės (METAR, TAF).

turimą stotys yra geltonos ir raudonos taškus žemėlapyje.

Perkelti pele per norėdami pamatyti stoties vardą.

Tada spustelėkite, norėdami matyti oro stebėjimo ir prognozės.

Norėdami pakeisti žemėlapį: spustelėkite ant žalios mygtukų su juodo kryžiaus žemyn,; žalią mygtuką su brūkšneliu, jei norite nutolinti; arba žalių rodyklių gretimoms žemėlapius.


METAR-TAF: